Terminal Aerodrome Forecast
Issued by NWS San Angelo, TX

Current Version | Previous Version | Text Only | Print | Product List | Glossary Off
Versions: 1 2 3 4 5 6 7 8 9 10 11 12 13

000
FTUS44 KSJT 031125
TAFABI
TAF
KABI 031125Z 0312/0412 17010KT P6SM FEW250
     FM031900 15009KT P6SM FEW070=

USA.gov is the U.S. government's official web portal to all federal, state and local government web resources and services.